Flight Track Log - Related Links

Times and Time Zones

All times are in EDT time to prevent confusion due to time zone crossing. See the EJA929 flight status page for this flight to view local times or setup timezone preferences in your user account.

Time Position Orientation Groundspeed Altitude Reporting Facility
EDT Latitude Longitude Course Direction KTS MPH feet Rate Location/Type
Sun 06:14:41 PM 47.5117 -122.2878 149° Southeast 185 213 1,100  Level Seattle Center
Sun 06:15:17 PM 47.4800 -122.2594 149° Southeast 208 239 3,000 2,412 Climbing Seattle Center
Sun 06:16:18 PM 47.4550 -122.1781 114° Southeast 247 284 5,000 1,756 Climbing Seattle Center
Sun 06:16:39 PM 47.4536 -122.1469 94° East 247 284 5,400 1,704 Climbing Seattle Center
Sun 06:17:39 PM 47.4481 -122.0339 94° East 274 315 7,300 2,529 Climbing Seattle Center
Sun 06:18:40 PM 47.4403 -121.8983 95° East 302 348 10,500 2,311 Climbing Seattle Center
Sun 06:19:41 PM 47.4328 -121.7594 95° East 339 390 12,000 1,525 Climbing Seattle Center
Sun 06:20:42 PM 47.4283 -121.6028 92° East 382 440 13,600 1,525 Climbing Seattle Center
Sun 06:21:43 PM 47.4106 -121.4408 99° East 400 460 15,100 1,869 Climbing Seattle Center
Sun 06:22:44 PM 47.3706 -121.2869 111° Southeast 403 464 17,400 2,115 Climbing Seattle Center
Sun 06:23:45 PM 47.3344 -121.1503 111° Southeast 399 459 19,400 2,083 Climbing Seattle Center
Sun 06:24:45 PM 47.2964 -120.9983 110° East 397 457 21,600 2,281 Climbing Seattle Center
Sun 06:25:46 PM 47.2483 -120.8122 111° Southeast 413 475 24,000 2,115 Climbing Seattle Center
Sun 06:26:47 PM 47.2044 -120.6414 111° Southeast 445 512 25,900 1,967 Climbing Seattle Center
Sun 06:27:48 PM 47.1575 -120.4603 111° Southeast 471 542 28,000 1,967 Climbing Seattle Center
Sun 06:28:49 PM 47.1081 -120.2694 111° Southeast 499 574 29,900 1,869 Climbing Seattle Center
Sun 06:29:50 PM 47.0550 -120.0717 111° Southeast 521 600 31,800 1,869 Climbing Seattle Center
Sun 06:30:51 PM 47.0006 -119.8669 111° Southeast 539 620 33,700 1,869 Climbing Seattle Center
Sun 06:31:52 PM 46.9453 -119.6611 111° Southeast 543 625 35,600 1,934 Climbing Seattle Center
Sun 06:32:52 PM 46.8894 -119.4539 111° Southeast 548 631 37,600 1,983 Climbing Seattle Center
Sun 06:33:53 PM 46.8319 -119.2478 112° Southeast 550 633 39,600 1,623 Climbing Seattle Center
Sun 06:34:54 PM 46.7764 -119.0453 112° Southeast 546 628 40,900 689 Climbing Seattle Center
Sun 06:35:55 PM 46.7194 -118.8397 112° Southeast 548 631 41,000 49 Climbing Seattle Center
Sun 06:36:56 PM 46.6469 -118.5789 112° Southeast 575 662 41,000  Level Seattle Center
Sun 06:37:57 PM 46.5842 -118.3575 112° Southeast 590 679 41,000  Level Seattle Center
Sun 06:38:58 PM 46.5197 -118.1375 113° Southeast 592 681 41,000  Level Seattle Center
Sun 06:39:59 PM 46.4561 -117.9150 112° Southeast 596 686 41,000  Level Seattle Center
Sun 06:41:00 PM 46.3911 -117.6947 113° Southeast 597 687 41,000 -49 Level Seattle Center
Sun 06:42:01 PM 46.3250 -117.4722 113° Southeast 600 690 40,900  Descending Seattle Center
Sun 06:43:02 PM 46.2597 -117.2517 113° Southeast 601 692 41,000 50 Climbing Seattle Center
Sun 06:44:02 PM 46.1928 -117.0297 113° Southeast 602 693 41,000 -50 Level Seattle Center
Sun 06:45:03 PM 46.1258 -116.8028 113° Southeast 612 704 40,900  Descending Seattle Center
Sun 06:46:04 PM 46.0578 -116.5822 114° Southeast 613 705 41,000 49 Climbing Seattle Center
Sun 06:47:05 PM 45.9897 -116.3594 114° Southeast 613 705 41,000  Level Seattle Center
Sun 06:48:06 PM 45.9075 -116.0961 114° Southeast 611 703 41,000  Level Seattle Center
Sun 06:49:07 PM 45.8386 -115.8825 115° Southeast 601 692 41,000  Level Seattle Center
Sun 06:50:08 PM 45.7700 -115.6578 114° Southeast 614 707 41,000  Level Seattle Center
Sun 06:51:09 PM 45.6967 -115.4267 114° Southeast 612 704 41,000  Level Seattle Center
Sun 06:52:10 PM 45.6258 -115.2100 115° Southeast 604 695 41,000  Level Seattle Center
Sun 06:53:11 PM 45.5539 -114.9917 115° Southeast 605 696 41,000  Level Seattle Center
Sun 06:54:12 PM 45.4828 -114.7742 115° Southeast 605 696 41,000  Level Seattle Center
Sun 06:55:13 PM 45.4119 -114.5578 115° Southeast 605 696 41,000  Level Seattle Center
Sun 06:56:14 PM 45.3397 -114.3422 115° Southeast 605 696 41,000  Level Seattle Center
Sun 06:57:15 PM 45.2683 -114.1289 115° Southeast 603 694 41,000  Level Seattle Center
Sun 06:58:16 PM 45.1967 -113.9189 116° Southeast 596 686 41,000  Level Seattle Center
Sun 06:59:36 PM 45.0994 -113.6350 116° Southeast 600 690 41,000  Level Salt Lake Center
Sun 07:00:37 PM 45.0192 -113.3992 116° Southeast 599 689 41,000  Level Salt Lake Center
Sun 07:01:39 PM 44.9503 -113.1986 116° Southeast 594 684 41,000  Level Salt Lake Center
Sun 07:02:41 PM 44.8678 -112.9658 117° Southeast 594 684 41,000  Level Salt Lake Center
Sun 07:03:42 PM 44.7978 -112.7669 116° Southeast 594 684 41,000  Level Salt Lake Center
Sun 07:04:44 PM 44.7275 -112.5689 116° Southeast 594 684 41,000  Level Salt Lake Center
Sun 07:05:46 PM 44.6444 -112.3389 117° Southeast 594 684 41,000  Level Salt Lake Center
Sun 07:06:47 PM 44.5742 -112.1417 117° Southeast 593 682 41,000  Level Salt Lake Center
Sun 07:07:49 PM 44.4914 -111.9139 117° Southeast 593 682 41,000  Level Salt Lake Center
Sun 07:08:51 PM 44.4203 -111.7225 117° Southeast 590 679 41,000  Level Salt Lake Center
Sun 07:09:52 PM 44.3381 -111.4986 117° Southeast 590 679 41,000  Level Salt Lake Center
Sun 07:10:54 PM 44.2658 -111.3058 118° Southeast 593 682 41,000  Level Salt Lake Center
Sun 07:11:56 PM 44.1814 -111.0803 118° Southeast 593 682 41,000  Level Salt Lake Center
Sun 07:12:57 PM 44.1083 -110.8881 118° Southeast 591 680 41,000  Level Salt Lake Center
Sun 07:13:59 PM 44.0233 -110.6639 118° Southeast 590 679 41,000  Level Salt Lake Center
Sun 07:15:01 PM 43.9503 -110.4717 118° Southeast 589 678 41,000  Level Salt Lake Center
Sun 07:16:02 PM 43.8631 -110.2481 118° Southeast 590 679 41,000  Level Salt Lake Center
Sun 07:17:04 PM 43.7894 -110.0556 118° Southeast 590 679 41,000  Level Salt Lake Center
Sun 07:18:06 PM 43.7136 -109.8664 119° Southeast 590 679 41,000  Level Salt Lake Center
Sun 07:19:07 PM 43.6267 -109.6478 119° Southeast 586 674 41,000  Level Salt Lake Center
Sun 07:20:09 PM 43.5519 -109.4603 119° Southeast 586 674 41,000  Level Salt Lake Center
Sun 07:21:11 PM 43.4736 -109.2644 119° Southeast 585 673 41,000  Level Salt Lake Center
Sun 07:22:12 PM 43.3953 -109.0697 119° Southeast 586 674 41,000  Level Salt Lake Center
Sun 07:23:14 PM 43.2978 -108.8328 119° Southeast 593 682 41,000  Level Salt Lake Center
Sun 07:24:16 PM 43.2164 -108.6331 119° Southeast 599 689 41,000  Level Salt Lake Center
Sun 07:25:17 PM 43.1353 -108.4358 119° Southeast 600 690 41,000  Level Salt Lake Center
Sun 07:26:19 PM 43.0544 -108.2400 119° Southeast 598 688 41,000  Level Salt Lake Center
Sun 07:27:21 PM 42.9722 -108.0439 120° Southeast 597 687 41,000  Level Salt Lake Center
Sun 07:28:22 PM 42.8869 -107.8411 120° Southeast 596 686 41,000  Level Salt Lake Center
Sun 07:29:24 PM 42.7964 -107.6222 119° Southeast 595 685 41,000  Level Salt Lake Center
Sun 07:30:26 PM 42.7139 -107.4333 121° Southeast 600 690 41,000  Level Salt Lake Center
Sun 07:31:20 PM 42.6333 -107.2433 120° Southeast 600 690 41,000  Level Denver Center
Sun 07:32:22 PM 42.5528 -107.0572 120° Southeast 597 687 41,000  Level Denver Center
Sun 07:33:24 PM 42.4669 -106.8589 120° Southeast 596 686 41,000  Level Denver Center
Sun 07:34:26 PM 42.3717 -106.6431 121° Southeast 597 687 41,000  Level Denver Center
Sun 07:35:28 PM 42.2906 -106.4589 121° Southeast 597 687 41,000  Level Denver Center
Sun 07:36:30 PM 42.1953 -106.2444 121° Southeast 598 688 41,000 48 Level Denver Center
Sun 07:37:32 PM 42.1147 -106.0633 121° Southeast 596 686 41,100  Climbing Denver Center
Sun 07:38:34 PM 42.0214 -105.8597 122° Southeast 579 666 41,000 -48 Descending Denver Center
Sun 07:39:36 PM 41.9486 -105.6989 121° Southeast 542 624 41,000  Level Denver Center
Sun 07:40:38 PM 41.8675 -105.5164 121° Southeast 516 594 41,000  Level Denver Center
Sun 07:41:40 PM 41.7917 -105.3539 122° Southeast 531 611 41,000  Level Denver Center
Sun 07:42:43 PM 41.7025 -105.1594 122° Southeast 546 628 41,000  Level Denver Center
Sun 07:43:45 PM 41.6253 -104.9933 122° Southeast 548 631 41,000 48 Level Denver Center
Sun 07:44:47 PM 41.5358 -104.7994 122° Southeast 551 634 41,100  Climbing Denver Center
Sun 07:45:48 PM 41.4717 -104.6625 122° Southeast 551 634 41,000 -48 Descending Denver Center
Sun 07:46:51 PM 41.3669 -104.4419 122° Southeast 556 640 41,000  Level Denver Center
Sun 07:47:53 PM 41.2886 -104.2761 122° Southeast 556 640 41,000  Level Denver Center
Sun 07:48:55 PM 41.1969 -104.0844 122° Southeast 556 640 41,000  Level Denver Center
Sun 07:49:57 PM 41.1167 -103.9169 122° Southeast 558 642 41,000  Level Denver Center
Sun 07:50:59 PM 41.0239 -103.7250 123° Southeast 558 642 41,000  Level Denver Center
Sun 07:52:01 PM 40.9442 -103.5611 123° Southeast 558 642 41,000  Level Denver Center
Sun 07:53:03 PM 40.8603 -103.3894 123° Southeast 557 641 41,000  Level Denver Center
Sun 07:54:05 PM 40.7764 -103.2181 123° Southeast 556 640 41,000  Level Denver Center
Sun 07:55:07 PM 40.6914 -103.0461 123° Southeast 557 641 41,000  Level Denver Center
Sun 07:56:10 PM 40.5897 -102.8419 123° Southeast 557 641 41,000  Level Denver Center
Sun 07:57:12 PM 40.5044 -102.6725 123° Southeast 557 641 41,000  Level Denver Center
Sun 07:58:14 PM 40.4144 -102.4925 123° Southeast 557 641 41,000  Level Denver Center
Sun 07:59:16 PM 40.3328 -102.3314 124° Southeast 557 641 41,000  Level Denver Center
Sun 08:00:18 PM 40.2381 -102.1425 123° Southeast 557 641 41,000  Level Denver Center
Sun 08:01:20 PM 40.1553 -101.9839 124° Southeast 555 639 41,000  Level Denver Center
Sun 08:02:22 PM 40.0611 -101.8008 124° Southeast 548 631 41,000  Level Denver Center
Sun 08:03:24 PM 39.9814 -101.6442 124° Southeast 547 629 41,000  Level Denver Center
Sun 08:04:26 PM 39.8872 -101.4639 124° Southeast 545 627 41,000  Level Denver Center
Sun 08:05:28 PM 39.8069 -101.3083 124° Southeast 545 627 41,000  Level Denver Center
Sun 08:06:30 PM 39.7094 -101.1236 124° Southeast 550 633 41,000  Level Denver Center
Sun 08:07:32 PM 39.6283 -100.9700 124° Southeast 548 631 41,000  Level Denver Center
Sun 08:08:35 PM 39.5331 -100.7897 124° Southeast 547 629 41,000  Level Denver Center
Sun 08:09:37 PM 39.4497 -100.6333 125° Southeast 549 632 41,000  Level Denver Center
Sun 08:10:39 PM 39.3533 -100.4539 125° Southeast 548 631 41,000  Level Denver Center
Sun 08:11:41 PM 39.2694 -100.2994 125° Southeast 548 631 41,000  Level Denver Center
Sun 08:12:43 PM 39.1703 -100.1156 125° Southeast 555 639 41,000  Level Denver Center
Sun 08:13:45 PM 39.0825 -99.9569 125° Southeast 555 639 41,000  Level Denver Center
Sun 08:14:47 PM 38.9967 -99.7994 125° Southeast 557 641 41,000 -726 Level Denver Center
Sun 08:15:49 PM 38.8964 -99.6172 125° Southeast 558 642 39,500 -1,500 Descending Denver Center
Sun 08:16:51 PM 38.8167 -99.4739 125° Southeast 521 600 37,900 -1,163 Descending Denver Center
Sun 08:17:58 PM 38.7200 -99.3011 126° Southeast 527 606 37,000 -419 Descending Kansas City Center
Sun 08:19:00 PM 38.6325 -99.1431 125° Southeast 538 619 37,000 -581 Level Kansas City Center
Sun 08:20:02 PM 38.5481 -98.9936 126° Southeast 527 606 35,800 -1,366 Descending Kansas City Center
Sun 08:21:03 PM 38.4692 -98.8544 126° Southeast 493 567 34,200 -1,728 Descending Kansas City Center
Sun 08:22:07 PM 38.3922 -98.7192 126° Southeast 476 548 32,200 -2,928 Descending Kansas City Center
Sun 08:23:08 PM 38.3006 -98.5594 126° Southeast 470 541 28,100 -3,738 Descending Kansas City Center
Sun 08:24:09 PM 38.2269 -98.4286 126° Southeast 461 531 24,600 -3,635 Descending Kansas City Center
Sun 08:24:52 PM 38.1750 -98.3394 127° Southeast 443 510 21,800 -3,836 Descending Kansas City Center
Sun 08:25:10 PM 38.1531 -98.3028 127° Southeast 437 503 20,700 -3,318 Descending Kansas City Center
Sun 08:26:17 PM 38.0806 -98.1750 126° Southeast 411 473 17,100 -3,145 Descending Kansas City Center
Sun 08:27:14 PM 38.0169 -98.0792 130° Southeast 405 466 14,200 -3,400 Descending Kansas City Center
Sun 08:27:17 PM 38.0031 -98.0617 135° Southeast 388 447 13,700 -2,625 Descending Kansas City Center
Sun 08:28:18 PM 37.9353 -97.9656 132° Southeast 359 413 11,400 -1,835 Descending Kansas City Center
Sun 08:29:18 PM 37.8792 -97.8811 130° Southeast 300 345 10,000 -1,636 Descending Kansas City Center
Sun 08:30:19 PM 37.8319 -97.8078 129° Southeast 300 345 8,100 -1,918 Descending Kansas City Center
Sun 08:31:20 PM 37.7761 -97.7244 130° Southeast 287 330 6,100 -1,781 Descending Kansas City Center
Sun 08:31:23 PM 37.7811 -97.7308 315° West 293 337 6,200 -1,200 Climbing Kansas City Center
Sun 08:32:25 PM 37.7319 -97.6564 130° Southeast 285 328 4,800 -1,525 Descending Kansas City Center
Sun 08:33:25 PM 37.6781 -97.5725 129° Southeast 269 310 3,100 -992 Descending Kansas City Center
Sun 08:34:26 PM 37.6358 -97.5103 131° Southeast 220 253 2,800 -356 Descending Kansas City Center
Sun 08:35:23 PM 37.6150 -97.4686 122° Southeast 130 150 2,400 -381 Descending Kansas City Center
Sun 08:35:29 PM 37.6147 -97.4644 95° East 186 214 2,400 -712 Level Kansas City Center
Sun 08:36:22 PM 37.6283 -97.4322 62° Northeast 110 127 1,700 -677 Descending Kansas City Center
Sun 08:36:31 PM 37.6319 -97.4325 357° North 151 174 1,700 -171 Level Kansas City Center
Sun 08:37:32 PM 37.6614 -97.4192 20° North 143 165 1,500 -197 Descending Kansas City Center

Login

Don't have an account? Register now (free) for customized features, flight alerts, and more!